sensor_id;sensor_type;location;lat;lon;timestamp;temperature;humidity
4856;DHT22;2442;48.676;7.986;2023-08-12T00:00:18;18.70;99.90
4856;DHT22;2442;48.676;7.986;2023-08-12T00:02:45;19.10;99.90
4856;DHT22;2442;48.676;7.986;2023-08-12T00:05:12;18.80;99.90
4856;DHT22;2442;48.676;7.986;2023-08-12T00:07:40;18.90;99.90
4856;DHT22;2442;48.676;7.986;2023-08-12T00:10:07;18.70;99.90
4856;DHT22;2442;48.676;7.986;2023-08-12T00:12:35;19.30;99.90
4856;DHT22;2442;48.676;7.986;2023-08-12T00:15:02;19.00;99.90
4856;DHT22;2442;48.676;7.986;2023-08-12T00:17:33;19.10;99.90
4856;DHT22;2442;48.676;7.986;2023-08-12T00:20:01;18.80;99.90
4856;DHT22;2442;48.676;7.986;2023-08-12T00:22:30;19.00;99.90
4856;DHT22;2442;48.676;7.986;2023-08-12T00:24:57;19.20;99.90
4856;DHT22;2442;48.676;7.986;2023-08-12T00:27:24;19.40;99.90
4856;DHT22;2442;48.676;7.986;2023-08-12T00:29:51;19.60;99.90
4856;DHT22;2442;48.676;7.986;2023-08-12T00:32:17;19.70;99.90
4856;DHT22;2442;48.676;7.986;2023-08-12T00:34:46;19.20;99.90
4856;DHT22;2442;48.676;7.986;2023-08-12T00:37:13;19.40;99.90
4856;DHT22;2442;48.676;7.986;2023-08-12T00:39:39;19.50;99.90
4856;DHT22;2442;48.676;7.986;2023-08-12T00:42:06;19.20;99.90
4856;DHT22;2442;48.676;7.986;2023-08-12T00:44:33;19.40;99.90
4856;DHT22;2442;48.676;7.986;2023-08-12T00:47:00;19.70;99.90
4856;DHT22;2442;48.676;7.986;2023-08-12T00:49:27;19.10;99.90
4856;DHT22;2442;48.676;7.986;2023-08-12T00:51:55;19.60;99.90
4856;DHT22;2442;48.676;7.986;2023-08-12T00:54:22;19.30;99.90
4856;DHT22;2442;48.676;7.986;2023-08-12T00:56:51;19.30;99.90
4856;DHT22;2442;48.676;7.986;2023-08-12T00:59:19;19.90;99.90
4856;DHT22;2442;48.676;7.986;2023-08-12T01:01:46;19.50;99.90
4856;DHT22;2442;48.676;7.986;2023-08-12T01:04:13;19.60;99.90
4856;DHT22;2442;48.676;7.986;2023-08-12T01:06:40;19.70;99.90
4856;DHT22;2442;48.676;7.986;2023-08-12T01:09:08;20.10;99.90
4856;DHT22;2442;48.676;7.986;2023-08-12T01:11:36;20.00;99.90
4856;DHT22;2442;48.676;7.986;2023-08-12T01:14:06;20.20;99.90
4856;DHT22;2442;48.676;7.986;2023-08-12T01:16:39;20.30;99.90
4856;DHT22;2442;48.676;7.986;2023-08-12T01:19:10;20.30;99.90
4856;DHT22;2442;48.676;7.986;2023-08-12T01:21:39;19.70;99.90
4856;DHT22;2442;48.676;7.986;2023-08-12T01:24:09;20.10;99.90
4856;DHT22;2442;48.676;7.986;2023-08-12T01:26:36;20.20;99.90
4856;DHT22;2442;48.676;7.986;2023-08-12T01:29:03;20.10;99.90
4856;DHT22;2442;48.676;7.986;2023-08-12T01:31:31;19.90;99.90
4856;DHT22;2442;48.676;7.986;2023-08-12T01:34:06;20.10;99.90
4856;DHT22;2442;48.676;7.986;2023-08-12T01:36:36;20.20;99.90
4856;DHT22;2442;48.676;7.986;2023-08-12T01:39:04;20.00;99.90
4856;DHT22;2442;48.676;7.986;2023-08-12T01:41:33;20.10;99.90
4856;DHT22;2442;48.676;7.986;2023-08-12T01:44:00;20.40;99.90
4856;DHT22;2442;48.676;7.986;2023-08-12T01:46:28;20.40;99.90
4856;DHT22;2442;48.676;7.986;2023-08-12T01:48:55;19.70;99.90
4856;DHT22;2442;48.676;7.986;2023-08-12T01:51:22;19.70;99.90
4856;DHT22;2442;48.676;7.986;2023-08-12T01:53:48;20.10;99.90
4856;DHT22;2442;48.676;7.986;2023-08-12T01:56:15;19.70;99.90
4856;DHT22;2442;48.676;7.986;2023-08-12T01:58:43;19.50;99.90
4856;DHT22;2442;48.676;7.986;2023-08-12T02:01:10;19.50;99.90
4856;DHT22;2442;48.676;7.986;2023-08-12T02:03:37;19.70;99.90
4856;DHT22;2442;48.676;7.986;2023-08-12T02:06:04;19.40;99.90
4856;DHT22;2442;48.676;7.986;2023-08-12T02:08:31;19.50;99.90
4856;DHT22;2442;48.676;7.986;2023-08-12T02:10:58;19.80;99.90
4856;DHT22;2442;48.676;7.986;2023-08-12T02:13:25;20.00;99.90
4856;DHT22;2442;48.676;7.986;2023-08-12T02:15:53;19.70;99.90
4856;DHT22;2442;48.676;7.986;2023-08-12T02:18:20;19.70;99.90
4856;DHT22;2442;48.676;7.986;2023-08-12T02:20:46;19.60;99.90
4856;DHT22;2442;48.676;7.986;2023-08-12T02:23:14;19.30;99.90
4856;DHT22;2442;48.676;7.986;2023-08-12T02:25:40;19.30;99.90
4856;DHT22;2442;48.676;7.986;2023-08-12T02:28:07;20.00;99.90
4856;DHT22;2442;48.676;7.986;2023-08-12T02:30:34;19.90;99.90
4856;DHT22;2442;48.676;7.986;2023-08-12T02:33:02;19.70;99.90
4856;DHT22;2442;48.676;7.986;2023-08-12T02:35:36;19.40;99.90
4856;DHT22;2442;48.676;7.986;2023-08-12T02:38:23;19.40;99.90
4856;DHT22;2442;48.676;7.986;2023-08-12T02:40:52;20.00;99.90
4856;DHT22;2442;48.676;7.986;2023-08-12T02:43:39;19.80;99.90
4856;DHT22;2442;48.676;7.986;2023-08-12T02:46:25;19.90;99.90
4856;DHT22;2442;48.676;7.986;2023-08-12T02:48:53;19.60;99.90
4856;DHT22;2442;48.676;7.986;2023-08-12T02:51:20;19.60;99.90
4856;DHT22;2442;48.676;7.986;2023-08-12T02:53:47;19.50;99.90
4856;DHT22;2442;48.676;7.986;2023-08-12T02:56:13;20.00;99.90
4856;DHT22;2442;48.676;7.986;2023-08-12T02:58:40;19.40;99.90
4856;DHT22;2442;48.676;7.986;2023-08-12T03:01:07;19.50;99.90
4856;DHT22;2442;48.676;7.986;2023-08-12T03:03:34;19.30;99.90
4856;DHT22;2442;48.676;7.986;2023-08-12T03:06:02;19.60;99.90
4856;DHT22;2442;48.676;7.986;2023-08-12T03:08:29;19.60;99.90
4856;DHT22;2442;48.676;7.986;2023-08-12T03:10:59;19.70;99.90
4856;DHT22;2442;48.676;7.986;2023-08-12T03:13:26;19.50;99.90
4856;DHT22;2442;48.676;7.986;2023-08-12T03:15:53;19.30;99.90
4856;DHT22;2442;48.676;7.986;2023-08-12T03:20:47;19.70;99.90
4856;DHT22;2442;48.676;7.986;2023-08-12T03:28:09;19.20;99.90
4856;DHT22;2442;48.676;7.986;2023-08-12T03:33:04;19.80;99.90
4856;DHT22;2442;48.676;7.986;2023-08-12T03:40:26;19.90;99.90
4856;DHT22;2442;48.676;7.986;2023-08-12T03:42:53;19.40;99.90
4856;DHT22;2442;48.676;7.986;2023-08-12T03:45:20;19.80;99.90
4856;DHT22;2442;48.676;7.986;2023-08-12T03:47:46;19.60;99.90
4856;DHT22;2442;48.676;7.986;2023-08-12T03:50:13;20.00;99.90
4856;DHT22;2442;48.676;7.986;2023-08-12T03:52:40;19.50;99.90
4856;DHT22;2442;48.676;7.986;2023-08-12T03:55:07;19.50;99.90
4856;DHT22;2442;48.676;7.986;2023-08-12T03:57:36;19.50;99.90
4856;DHT22;2442;48.676;7.986;2023-08-12T04:00:03;19.80;99.90
4856;DHT22;2442;48.676;7.986;2023-08-12T04:02:32;19.60;99.90
4856;DHT22;2442;48.676;7.986;2023-08-12T04:04:59;19.40;99.90
4856;DHT22;2442;48.676;7.986;2023-08-12T04:07:26;19.60;99.90
4856;DHT22;2442;48.676;7.986;2023-08-12T04:09:53;19.90;99.90
4856;DHT22;2442;48.676;7.986;2023-08-12T04:12:20;19.50;99.90
4856;DHT22;2442;48.676;7.986;2023-08-12T04:14:48;19.30;99.90
4856;DHT22;2442;48.676;7.986;2023-08-12T04:17:15;19.40;99.90
4856;DHT22;2442;48.676;7.986;2023-08-12T04:19:41;19.30;99.90
4856;DHT22;2442;48.676;7.986;2023-08-12T04:22:08;19.30;99.90
4856;DHT22;2442;48.676;7.986;2023-08-12T04:24:35;19.20;99.90
4856;DHT22;2442;48.676;7.986;2023-08-12T04:27:02;19.10;99.90
4856;DHT22;2442;48.676;7.986;2023-08-12T04:29:29;19.00;99.90
4856;DHT22;2442;48.676;7.986;2023-08-12T04:34:24;19.60;99.90
4856;DHT22;2442;48.676;7.986;2023-08-12T04:39:18;19.50;99.90
4856;DHT22;2442;48.676;7.986;2023-08-12T04:41:45;19.40;99.90
4856;DHT22;2442;48.676;7.986;2023-08-12T04:44:12;19.00;99.90
4856;DHT22;2442;48.676;7.986;2023-08-12T04:49:07;19.60;99.90
4856;DHT22;2442;48.676;7.986;2023-08-12T04:51:34;19.20;99.90
4856;DHT22;2442;48.676;7.986;2023-08-12T04:54:01;19.30;99.90
4856;DHT22;2442;48.676;7.986;2023-08-12T04:56:28;19.20;99.90
4856;DHT22;2442;48.676;7.986;2023-08-12T05:01:22;19.70;99.90
4856;DHT22;2442;48.676;7.986;2023-08-12T05:03:49;19.30;99.90
4856;DHT22;2442;48.676;7.986;2023-08-12T05:06:17;19.10;99.90
4856;DHT22;2442;48.676;7.986;2023-08-12T05:11:11;19.60;99.90
4856;DHT22;2442;48.676;7.986;2023-08-12T05:13:38;19.10;99.90
4856;DHT22;2442;48.676;7.986;2023-08-12T05:16:05;19.20;99.90
4856;DHT22;2442;48.676;7.986;2023-08-12T05:18:32;19.10;99.90
4856;DHT22;2442;48.676;7.986;2023-08-12T05:25:54;19.60;99.90
4856;DHT22;2442;48.676;7.986;2023-08-12T05:28:21;19.00;99.90
4856;DHT22;2442;48.676;7.986;2023-08-12T05:30:48;19.40;99.90
4856;DHT22;2442;48.676;7.986;2023-08-12T05:33:15;19.40;99.90
4856;DHT22;2442;48.676;7.986;2023-08-12T05:38:09;19.90;99.90
4856;DHT22;2442;48.676;7.986;2023-08-12T05:40:37;19.70;99.90
4856;DHT22;2442;48.676;7.986;2023-08-12T05:47:58;20.20;99.90
4856;DHT22;2442;48.676;7.986;2023-08-12T05:50:25;19.70;99.90
4856;DHT22;2442;48.676;7.986;2023-08-12T05:52:52;20.10;99.90
4856;DHT22;2442;48.676;7.986;2023-08-12T05:55:19;19.90;99.90
4856;DHT22;2442;48.676;7.986;2023-08-12T05:57:47;20.30;99.90
4856;DHT22;2442;48.676;7.986;2023-08-12T06:00:13;19.60;99.90
4856;DHT22;2442;48.676;7.986;2023-08-12T06:02:40;19.50;99.90
4856;DHT22;2442;48.676;7.986;2023-08-12T06:05:07;19.70;99.90
4856;DHT22;2442;48.676;7.986;2023-08-12T06:07:35;20.10;99.90
4856;DHT22;2442;48.676;7.986;2023-08-12T06:10:02;19.80;99.90
4856;DHT22;2442;48.676;7.986;2023-08-12T06:12:29;20.10;99.90
4856;DHT22;2442;48.676;7.986;2023-08-12T06:19:51;20.90;99.90
4856;DHT22;2442;48.676;7.986;2023-08-12T06:22:18;20.60;99.90
4856;DHT22;2442;48.676;7.986;2023-08-12T06:24:45;20.90;99.90
4856;DHT22;2442;48.676;7.986;2023-08-12T06:27:12;21.10;99.90
4856;DHT22;2442;48.676;7.986;2023-08-12T06:29:38;21.80;99.90
4856;DHT22;2442;48.676;7.986;2023-08-12T06:32:07;22.10;99.90
4856;DHT22;2442;48.676;7.986;2023-08-12T06:34:33;22.30;99.90
4856;DHT22;2442;48.676;7.986;2023-08-12T06:37:00;22.50;99.90
4856;DHT22;2442;48.676;7.986;2023-08-12T06:39:27;23.00;99.90
4856;DHT22;2442;48.676;7.986;2023-08-12T06:41:54;23.10;99.90
4856;DHT22;2442;48.676;7.986;2023-08-12T06:44:21;23.20;99.90
4856;DHT22;2442;48.676;7.986;2023-08-12T06:46:48;23.40;99.90
4856;DHT22;2442;48.676;7.986;2023-08-12T06:49:16;23.70;99.90
4856;DHT22;2442;48.676;7.986;2023-08-12T06:51:43;23.70;99.90
4856;DHT22;2442;48.676;7.986;2023-08-12T06:54:09;23.60;99.90
4856;DHT22;2442;48.676;7.986;2023-08-12T06:56:36;23.80;99.90
4856;DHT22;2442;48.676;7.986;2023-08-12T06:59:03;24.20;99.90
4856;DHT22;2442;48.676;7.986;2023-08-12T07:01:30;24.00;99.90
4856;DHT22;2442;48.676;7.986;2023-08-12T07:03:57;24.10;99.90
4856;DHT22;2442;48.676;7.986;2023-08-12T07:06:25;24.60;99.90
4856;DHT22;2442;48.676;7.986;2023-08-12T07:11:19;24.60;99.90
4856;DHT22;2442;48.676;7.986;2023-08-12T07:31:00;25.30;99.90
4856;DHT22;2442;48.676;7.986;2023-08-12T07:33:27;25.20;99.90
4856;DHT22;2442;48.676;7.986;2023-08-12T07:35:54;24.60;99.90
4856;DHT22;2442;48.676;7.986;2023-08-12T07:38:21;25.00;99.90
4856;DHT22;2442;48.676;7.986;2023-08-12T07:40:49;25.30;99.90
4856;DHT22;2442;48.676;7.986;2023-08-12T07:43:16;25.30;99.90
4856;DHT22;2442;48.676;7.986;2023-08-12T07:45:43;25.20;99.90
4856;DHT22;2442;48.676;7.986;2023-08-12T07:48:09;25.20;99.90
4856;DHT22;2442;48.676;7.986;2023-08-12T07:50:36;25.00;99.90
4856;DHT22;2442;48.676;7.986;2023-08-12T07:53:03;25.40;99.90
4856;DHT22;2442;48.676;7.986;2023-08-12T07:55:30;25.40;99.90
4856;DHT22;2442;48.676;7.986;2023-08-12T07:57:58;25.60;99.90
4856;DHT22;2442;48.676;7.986;2023-08-12T08:00:25;25.60;99.90
4856;DHT22;2442;48.676;7.986;2023-08-12T08:02:52;25.30;99.90
4856;DHT22;2442;48.676;7.986;2023-08-12T08:05:19;25.70;99.90
4856;DHT22;2442;48.676;7.986;2023-08-12T08:07:45;25.70;99.90
4856;DHT22;2442;48.676;7.986;2023-08-12T08:10:13;25.90;99.90
4856;DHT22;2442;48.676;7.986;2023-08-12T08:12:40;25.90;99.90
4856;DHT22;2442;48.676;7.986;2023-08-12T08:15:10;26.20;99.90
4856;DHT22;2442;48.676;7.986;2023-08-12T08:17:37;26.20;99.90
4856;DHT22;2442;48.676;7.986;2023-08-12T08:20:04;26.10;99.90
4856;DHT22;2442;48.676;7.986;2023-08-12T08:22:32;26.20;99.90
4856;DHT22;2442;48.676;7.986;2023-08-12T08:24:59;26.10;99.90
4856;DHT22;2442;48.676;7.986;2023-08-12T08:27:26;26.20;99.90
4856;DHT22;2442;48.676;7.986;2023-08-12T08:29:53;26.40;99.90
4856;DHT22;2442;48.676;7.986;2023-08-12T08:32:21;26.40;99.90
4856;DHT22;2442;48.676;7.986;2023-08-12T08:34:51;26.20;99.90
4856;DHT22;2442;48.676;7.986;2023-08-12T08:37:18;26.30;99.90
4856;DHT22;2442;48.676;7.986;2023-08-12T08:39:44;26.40;99.90
4856;DHT22;2442;48.676;7.986;2023-08-12T08:42:11;26.40;99.90
4856;DHT22;2442;48.676;7.986;2023-08-12T08:44:39;26.40;99.90
4856;DHT22;2442;48.676;7.986;2023-08-12T08:47:07;26.40;99.90
4856;DHT22;2442;48.676;7.986;2023-08-12T08:49:37;26.50;99.90
4856;DHT22;2442;48.676;7.986;2023-08-12T08:52:05;26.20;99.90
4856;DHT22;2442;48.676;7.986;2023-08-12T08:54:32;26.00;99.90
4856;DHT22;2442;48.676;7.986;2023-08-12T08:56:58;25.60;99.90
4856;DHT22;2442;48.676;7.986;2023-08-12T08:59:25;25.50;99.90
4856;DHT22;2442;48.676;7.986;2023-08-12T09:01:52;25.40;99.90
4856;DHT22;2442;48.676;7.986;2023-08-12T09:04:20;25.70;99.90
4856;DHT22;2442;48.676;7.986;2023-08-12T09:06:49;25.70;99.90
4856;DHT22;2442;48.676;7.986;2023-08-12T09:09:16;26.00;99.90
4856;DHT22;2442;48.676;7.986;2023-08-12T09:11:46;26.00;99.90
4856;DHT22;2442;48.676;7.986;2023-08-12T09:14:13;26.30;99.90
4856;DHT22;2442;48.676;7.986;2023-08-12T09:16:41;26.50;99.90
4856;DHT22;2442;48.676;7.986;2023-08-12T09:19:07;26.70;99.90
4856;DHT22;2442;48.676;7.986;2023-08-12T09:21:34;27.10;99.90
4856;DHT22;2442;48.676;7.986;2023-08-12T09:24:03;27.50;99.90
4856;DHT22;2442;48.676;7.986;2023-08-12T09:26:31;27.70;99.90
4856;DHT22;2442;48.676;7.986;2023-08-12T09:28:58;27.80;99.90
4856;DHT22;2442;48.676;7.986;2023-08-12T09:31:26;28.00;99.90
4856;DHT22;2442;48.676;7.986;2023-08-12T09:33:54;28.00;99.90
4856;DHT22;2442;48.676;7.986;2023-08-12T09:36:24;28.10;99.90
4856;DHT22;2442;48.676;7.986;2023-08-12T09:38:51;28.40;99.90
4856;DHT22;2442;48.676;7.986;2023-08-12T09:41:20;28.20;99.90
4856;DHT22;2442;48.676;7.986;2023-08-12T09:43:48;28.10;99.90
4856;DHT22;2442;48.676;7.986;2023-08-12T09:46:17;28.10;99.90
4856;DHT22;2442;48.676;7.986;2023-08-12T09:48:44;28.10;99.90
4856;DHT22;2442;48.676;7.986;2023-08-12T09:51:10;28.10;99.90
4856;DHT22;2442;48.676;7.986;2023-08-12T09:53:37;28.30;99.90
4856;DHT22;2442;48.676;7.986;2023-08-12T09:56:06;28.40;99.90
4856;DHT22;2442;48.676;7.986;2023-08-12T09:58:36;28.60;99.90
4856;DHT22;2442;48.676;7.986;2023-08-12T10:01:03;28.70;99.90
4856;DHT22;2442;48.676;7.986;2023-08-12T10:03:31;28.50;99.90
4856;DHT22;2442;48.676;7.986;2023-08-12T10:05:59;28.30;99.90
4856;DHT22;2442;48.676;7.986;2023-08-12T10:08:26;28.10;99.90
4856;DHT22;2442;48.676;7.986;2023-08-12T10:10:53;28.10;99.90
4856;DHT22;2442;48.676;7.986;2023-08-12T10:13:21;28.40;99.90
4856;DHT22;2442;48.676;7.986;2023-08-12T10:15:49;28.40;99.90
4856;DHT22;2442;48.676;7.986;2023-08-12T10:18:17;27.90;99.90
4856;DHT22;2442;48.676;7.986;2023-08-12T10:20:45;27.20;99.90
4856;DHT22;2442;48.676;7.986;2023-08-12T10:23:14;26.90;99.90
4856;DHT22;2442;48.676;7.986;2023-08-12T10:25:43;26.60;99.90
4856;DHT22;2442;48.676;7.986;2023-08-12T10:28:10;26.50;99.90
4856;DHT22;2442;48.676;7.986;2023-08-12T10:30:37;25.60;99.90
4856;DHT22;2442;48.676;7.986;2023-08-12T10:33:07;25.40;99.90
4856;DHT22;2442;48.676;7.986;2023-08-12T10:35:40;25.10;99.90
4856;DHT22;2442;48.676;7.986;2023-08-12T10:38:08;24.80;99.90
4856;DHT22;2442;48.676;7.986;2023-08-12T10:40:37;25.10;99.90
4856;DHT22;2442;48.676;7.986;2023-08-12T10:43:04;24.80;99.90
4856;DHT22;2442;48.676;7.986;2023-08-12T10:45:41;25.20;99.90
4856;DHT22;2442;48.676;7.986;2023-08-12T10:48:16;25.80;99.90
4856;DHT22;2442;48.676;7.986;2023-08-12T10:50:45;26.30;99.90
4856;DHT22;2442;48.676;7.986;2023-08-12T10:53:25;26.30;99.90
4856;DHT22;2442;48.676;7.986;2023-08-12T10:55:57;26.60;99.90
4856;DHT22;2442;48.676;7.986;2023-08-12T10:58:26;26.30;99.90
4856;DHT22;2442;48.676;7.986;2023-08-12T11:00:53;26.40;99.90
4856;DHT22;2442;48.676;7.986;2023-08-12T11:03:22;26.90;99.90
4856;DHT22;2442;48.676;7.986;2023-08-12T11:05:49;26.80;99.90
4856;DHT22;2442;48.676;7.986;2023-08-12T11:08:23;26.30;99.90
4856;DHT22;2442;48.676;7.986;2023-08-12T11:10:54;26.30;99.90
4856;DHT22;2442;48.676;7.986;2023-08-12T11:13:22;26.00;99.90
4856;DHT22;2442;48.676;7.986;2023-08-12T11:15:49;25.60;99.90
4856;DHT22;2442;48.676;7.986;2023-08-12T11:18:17;25.60;99.90
4856;DHT22;2442;48.676;7.986;2023-08-12T11:20:47;25.30;99.90
4856;DHT22;2442;48.676;7.986;2023-08-12T11:23:15;25.40;99.90
4856;DHT22;2442;48.676;7.986;2023-08-12T11:25:43;25.40;99.90
4856;DHT22;2442;48.676;7.986;2023-08-12T11:28:10;25.50;99.90
4856;DHT22;2442;48.676;7.986;2023-08-12T11:30:39;25.40;99.90
4856;DHT22;2442;48.676;7.986;2023-08-12T11:33:07;25.70;99.90
4856;DHT22;2442;48.676;7.986;2023-08-12T11:35:34;25.60;99.90
4856;DHT22;2442;48.676;7.986;2023-08-12T11:38:03;25.80;99.90
4856;DHT22;2442;48.676;7.986;2023-08-12T11:40:31;25.70;99.90
4856;DHT22;2442;48.676;7.986;2023-08-12T11:42:58;26.30;99.90
4856;DHT22;2442;48.676;7.986;2023-08-12T11:45:25;26.80;99.90
4856;DHT22;2442;48.676;7.986;2023-08-12T11:47:53;27.00;99.90
4856;DHT22;2442;48.676;7.986;2023-08-12T11:50:20;27.10;99.90
4856;DHT22;2442;48.676;7.986;2023-08-12T11:52:48;27.30;99.90
4856;DHT22;2442;48.676;7.986;2023-08-12T11:55:16;27.20;99.90
4856;DHT22;2442;48.676;7.986;2023-08-12T11:57:43;27.10;99.90
4856;DHT22;2442;48.676;7.986;2023-08-12T12:00:12;27.40;99.90
4856;DHT22;2442;48.676;7.986;2023-08-12T12:02:41;27.50;99.90
4856;DHT22;2442;48.676;7.986;2023-08-12T12:05:08;27.50;99.90
4856;DHT22;2442;48.676;7.986;2023-08-12T12:07:36;27.90;99.90
4856;DHT22;2442;48.676;7.986;2023-08-12T12:10:04;27.90;99.90
4856;DHT22;2442;48.676;7.986;2023-08-12T12:12:34;28.20;99.90
4856;DHT22;2442;48.676;7.986;2023-08-12T12:15:01;28.20;99.90
4856;DHT22;2442;48.676;7.986;2023-08-12T12:17:28;28.00;99.90
4856;DHT22;2442;48.676;7.986;2023-08-12T12:19:56;28.10;99.90
4856;DHT22;2442;48.676;7.986;2023-08-12T12:22:28;28.40;99.90
4856;DHT22;2442;48.676;7.986;2023-08-12T12:24:57;28.90;99.90
4856;DHT22;2442;48.676;7.986;2023-08-12T12:27:24;28.60;99.90
4856;DHT22;2442;48.676;7.986;2023-08-12T12:29:52;28.90;99.90
4856;DHT22;2442;48.676;7.986;2023-08-12T12:32:19;29.00;99.90
4856;DHT22;2442;48.676;7.986;2023-08-12T12:34:46;29.30;99.90
4856;DHT22;2442;48.676;7.986;2023-08-12T12:37:14;29.30;99.90
4856;DHT22;2442;48.676;7.986;2023-08-12T12:39:41;29.20;99.90
4856;DHT22;2442;48.676;7.986;2023-08-12T12:42:07;28.90;99.90
4856;DHT22;2442;48.676;7.986;2023-08-12T12:44:34;28.90;99.90
4856;DHT22;2442;48.676;7.986;2023-08-12T12:47:03;28.70;99.90
4856;DHT22;2442;48.676;7.986;2023-08-12T12:49:30;28.80;99.90
4856;DHT22;2442;48.676;7.986;2023-08-12T12:51:57;28.80;99.90
4856;DHT22;2442;48.676;7.986;2023-08-12T12:54:23;29.00;99.90
4856;DHT22;2442;48.676;7.986;2023-08-12T12:56:50;29.00;99.90
4856;DHT22;2442;48.676;7.986;2023-08-12T12:59:17;28.80;99.90
4856;DHT22;2442;48.676;7.986;2023-08-12T13:01:44;28.50;99.90
4856;DHT22;2442;48.676;7.986;2023-08-12T13:04:12;28.50;99.90
4856;DHT22;2442;48.676;7.986;2023-08-12T13:06:39;28.30;99.90
4856;DHT22;2442;48.676;7.986;2023-08-12T13:09:06;28.00;99.90
4856;DHT22;2442;48.676;7.986;2023-08-12T13:11:33;28.00;99.90
4856;DHT22;2442;48.676;7.986;2023-08-12T13:14:00;27.90;99.90
4856;DHT22;2442;48.676;7.986;2023-08-12T13:16:27;28.00;99.90
4856;DHT22;2442;48.676;7.986;2023-08-12T13:18:54;28.20;99.90
4856;DHT22;2442;48.676;7.986;2023-08-12T13:21:25;28.40;99.90
4856;DHT22;2442;48.676;7.986;2023-08-12T13:23:51;28.60;99.90
4856;DHT22;2442;48.676;7.986;2023-08-12T13:26:19;28.60;99.90
4856;DHT22;2442;48.676;7.986;2023-08-12T13:28:46;28.90;99.90
4856;DHT22;2442;48.676;7.986;2023-08-12T13:31:13;28.80;99.90
4856;DHT22;2442;48.676;7.986;2023-08-12T13:33:40;29.00;99.90
4856;DHT22;2442;48.676;7.986;2023-08-12T13:36:07;29.10;99.90
4856;DHT22;2442;48.676;7.986;2023-08-12T13:38:35;29.20;99.90
4856;DHT22;2442;48.676;7.986;2023-08-12T13:41:02;29.40;99.90
4856;DHT22;2442;48.676;7.986;2023-08-12T13:43:29;29.20;99.90
4856;DHT22;2442;48.676;7.986;2023-08-12T13:45:56;29.30;99.90
4856;DHT22;2442;48.676;7.986;2023-08-12T13:48:22;29.30;99.90
4856;DHT22;2442;48.676;7.986;2023-08-12T13:50:49;29.30;99.90
4856;DHT22;2442;48.676;7.986;2023-08-12T13:53:17;28.90;99.90
4856;DHT22;2442;48.676;7.986;2023-08-12T13:55:46;28.50;99.90
4856;DHT22;2442;48.676;7.986;2023-08-12T13:58:13;28.20;99.90
4856;DHT22;2442;48.676;7.986;2023-08-12T14:00:39;28.20;99.90
4856;DHT22;2442;48.676;7.986;2023-08-12T14:03:06;28.30;99.90
4856;DHT22;2442;48.676;7.986;2023-08-12T14:05:33;27.90;99.90
4856;DHT22;2442;48.676;7.986;2023-08-12T14:08:00;27.80;99.90
4856;DHT22;2442;48.676;7.986;2023-08-12T14:10:27;27.80;99.90
4856;DHT22;2442;48.676;7.986;2023-08-12T14:12:55;27.90;99.90
4856;DHT22;2442;48.676;7.986;2023-08-12T14:15:22;27.40;99.90
4856;DHT22;2442;48.676;7.986;2023-08-12T14:17:49;26.90;99.90
4856;DHT22;2442;48.676;7.986;2023-08-12T14:20:16;25.60;99.90
4856;DHT22;2442;48.676;7.986;2023-08-12T14:22:43;25.00;99.90
4856;DHT22;2442;48.676;7.986;2023-08-12T14:25:10;24.40;99.90
4856;DHT22;2442;48.676;7.986;2023-08-12T14:27:37;23.80;99.90
4856;DHT22;2442;48.676;7.986;2023-08-12T14:30:06;23.30;99.90
4856;DHT22;2442;48.676;7.986;2023-08-12T14:32:34;23.10;99.90
4856;DHT22;2442;48.676;7.986;2023-08-12T14:35:00;23.90;99.90
4856;DHT22;2442;48.676;7.986;2023-08-12T14:37:27;22.70;99.90
4856;DHT22;2442;48.676;7.986;2023-08-12T14:39:54;23.50;99.90
4856;DHT22;2442;48.676;7.986;2023-08-12T14:42:21;23.40;99.90
4856;DHT22;2442;48.676;7.986;2023-08-12T14:44:48;22.70;99.90
4856;DHT22;2442;48.676;7.986;2023-08-12T14:47:16;22.70;99.90
4856;DHT22;2442;48.676;7.986;2023-08-12T14:49:44;22.40;99.90
4856;DHT22;2442;48.676;7.986;2023-08-12T14:52:18;22.90;99.90
4856;DHT22;2442;48.676;7.986;2023-08-12T14:54:45;22.30;99.90
4856;DHT22;2442;48.676;7.986;2023-08-12T14:57:12;22.60;99.90
4856;DHT22;2442;48.676;7.986;2023-08-12T14:59:38;22.10;99.90
4856;DHT22;2442;48.676;7.986;2023-08-12T15:02:05;21.90;99.90
4856;DHT22;2442;48.676;7.986;2023-08-12T15:04:34;22.00;99.90
4856;DHT22;2442;48.676;7.986;2023-08-12T15:07:01;21.80;99.90
4856;DHT22;2442;48.676;7.986;2023-08-12T15:09:28;21.80;99.90
4856;DHT22;2442;48.676;7.986;2023-08-12T15:11:55;22.50;99.90
4856;DHT22;2442;48.676;7.986;2023-08-12T15:14:22;22.50;99.90
4856;DHT22;2442;48.676;7.986;2023-08-12T15:16:48;22.00;99.90
4856;DHT22;2442;48.676;7.986;2023-08-12T15:19:15;21.60;99.90
4856;DHT22;2442;48.676;7.986;2023-08-12T15:21:43;22.00;99.90
4856;DHT22;2442;48.676;7.986;2023-08-12T15:24:10;22.00;99.90
4856;DHT22;2442;48.676;7.986;2023-08-12T15:26:37;22.10;99.90
4856;DHT22;2442;48.676;7.986;2023-08-12T15:29:04;22.30;99.90
4856;DHT22;2442;48.676;7.986;2023-08-12T15:31:30;22.10;99.90
4856;DHT22;2442;48.676;7.986;2023-08-12T15:33:57;22.40;99.90
4856;DHT22;2442;48.676;7.986;2023-08-12T15:36:24;22.40;99.90
4856;DHT22;2442;48.676;7.986;2023-08-12T15:38:52;23.00;99.90
4856;DHT22;2442;48.676;7.986;2023-08-12T15:41:19;22.70;99.90
4856;DHT22;2442;48.676;7.986;2023-08-12T15:43:47;22.90;99.90
4856;DHT22;2442;48.676;7.986;2023-08-12T15:46:14;23.10;99.90
4856;DHT22;2442;48.676;7.986;2023-08-12T15:48:41;22.40;99.90
4856;DHT22;2442;48.676;7.986;2023-08-12T15:51:08;22.80;99.90
4856;DHT22;2442;48.676;7.986;2023-08-12T15:53:35;22.40;99.90
4856;DHT22;2442;48.676;7.986;2023-08-12T15:56:03;22.20;99.90
4856;DHT22;2442;48.676;7.986;2023-08-12T15:58:30;22.10;99.90
4856;DHT22;2442;48.676;7.986;2023-08-12T16:00:57;22.30;99.90
4856;DHT22;2442;48.676;7.986;2023-08-12T16:03:26;22.10;99.90
4856;DHT22;2442;48.676;7.986;2023-08-12T16:05:55;22.50;99.90
4856;DHT22;2442;48.676;7.986;2023-08-12T16:08:22;22.20;99.90
4856;DHT22;2442;48.676;7.986;2023-08-12T16:10:49;22.30;99.90
4856;DHT22;2442;48.676;7.986;2023-08-12T16:13:17;22.30;99.90
4856;DHT22;2442;48.676;7.986;2023-08-12T16:15:44;22.40;99.90
4856;DHT22;2442;48.676;7.986;2023-08-12T16:18:11;22.90;99.90
4856;DHT22;2442;48.676;7.986;2023-08-12T16:20:38;22.60;99.90
4856;DHT22;2442;48.676;7.986;2023-08-12T16:23:04;22.80;99.90
4856;DHT22;2442;48.676;7.986;2023-08-12T16:25:31;22.60;99.90
4856;DHT22;2442;48.676;7.986;2023-08-12T16:27:58;22.40;99.90
4856;DHT22;2442;48.676;7.986;2023-08-12T16:30:26;22.70;99.90
4856;DHT22;2442;48.676;7.986;2023-08-12T16:32:53;22.20;99.90
4856;DHT22;2442;48.676;7.986;2023-08-12T16:35:20;22.90;99.90
4856;DHT22;2442;48.676;7.986;2023-08-12T16:37:47;22.70;99.90
4856;DHT22;2442;48.676;7.986;2023-08-12T16:40:14;22.70;99.90
4856;DHT22;2442;48.676;7.986;2023-08-12T16:42:41;22.40;99.90
4856;DHT22;2442;48.676;7.986;2023-08-12T16:45:08;22.50;99.90
4856;DHT22;2442;48.676;7.986;2023-08-12T16:47:36;22.90;99.90
4856;DHT22;2442;48.676;7.986;2023-08-12T16:50:03;22.80;99.90
4856;DHT22;2442;48.676;7.986;2023-08-12T16:52:31;22.30;99.90
4856;DHT22;2442;48.676;7.986;2023-08-12T16:54:58;23.10;99.90
4856;DHT22;2442;48.676;7.986;2023-08-12T16:59:52;22.70;99.90
4856;DHT22;2442;48.676;7.986;2023-08-12T17:07:15;22.90;99.90
4856;DHT22;2442;48.676;7.986;2023-08-12T17:14:36;22.10;99.90
4856;DHT22;2442;48.676;7.986;2023-08-12T17:19:30;22.60;99.90
4856;DHT22;2442;48.676;7.986;2023-08-12T17:24:25;22.70;99.90